createdAt,value
2019-05-03T00:02:12.265Z,77.90
2019-05-03T00:04:44.506Z,78.10
2019-05-03T00:07:13.902Z,78.40
2019-05-03T00:09:43.400Z,78.20
2019-05-03T00:12:12.781Z,78.30
2019-05-03T00:14:43.954Z,78.20
2019-05-03T00:17:13.774Z,77.80
2019-05-03T00:19:43.322Z,77.70
2019-05-03T00:22:12.680Z,78.20
2019-05-03T00:24:42.782Z,78.80
2019-05-03T00:27:12.703Z,79.30
2019-05-03T00:29:42.340Z,79.40
2019-05-03T00:32:12.475Z,79.20
2019-05-03T00:34:46.640Z,79.40
2019-05-03T00:37:22.070Z,79.00
2019-05-03T00:39:57.293Z,79.10
2019-05-03T00:42:27.023Z,79.00
2019-05-03T00:44:56.587Z,79.10
2019-05-03T00:47:26.076Z,79.10
2019-05-03T00:49:56.913Z,79.40
2019-05-03T00:52:28.164Z,79.70
2019-05-03T00:54:57.880Z,79.90
2019-05-03T00:57:29.017Z,79.50
2019-05-03T00:59:58.569Z,79.40
2019-05-03T01:02:28.438Z,79.10
2019-05-03T01:04:58.141Z,78.90
2019-05-03T01:07:28.177Z,78.70
2019-05-03T01:09:57.698Z,78.10
2019-05-03T01:12:27.159Z,77.50
2019-05-03T01:14:58.383Z,77.10
2019-05-03T01:17:28.086Z,77.50
2019-05-03T01:19:58.663Z,78.00
2019-05-03T01:22:28.505Z,78.90
2019-05-03T01:24:58.279Z,80.30
2019-05-03T01:27:27.979Z,80.20
2019-05-03T01:29:57.354Z,79.90
2019-05-03T01:32:26.882Z,79.40
2019-05-03T01:34:56.477Z,79.30
2019-05-03T01:37:26.011Z,79.10
2019-05-03T01:39:55.481Z,79.00
2019-05-03T01:42:24.960Z,79.20
2019-05-03T01:44:54.415Z,79.20
2019-05-03T01:47:25.604Z,79.20
2019-05-03T01:50:12.873Z,79.30
2019-05-03T01:52:43.939Z,79.40
2019-05-03T01:55:15.816Z,79.50
2019-05-03T01:57:44.515Z,79.70
2019-05-03T02:00:15.523Z,80.60
2019-05-03T02:02:49.253Z,79.90
2019-05-03T02:05:36.529Z,80.10
2019-05-03T02:08:06.077Z,80.00
2019-05-03T02:10:35.531Z,80.50
2019-05-03T02:13:05.068Z,80.90
2019-05-03T02:15:35.774Z,81.50
2019-05-03T02:18:05.259Z,84.80
2019-05-03T02:20:34.733Z,81.70
2019-05-03T02:23:04.185Z,81.10
2019-05-03T02:25:34.055Z,80.50
2019-05-03T02:28:04.523Z,80.30
2019-05-03T02:30:33.970Z,80.00
2019-05-03T02:33:04.257Z,79.80
2019-05-03T02:35:34.062Z,79.70
2019-05-03T02:38:03.887Z,79.70
2019-05-03T02:40:33.971Z,79.90
2019-05-03T02:43:19.978Z,79.90
2019-05-03T02:45:56.520Z,80.20
2019-05-03T02:48:26.604Z,80.40
2019-05-03T02:50:58.950Z,80.80
2019-05-03T02:53:28.331Z,83.70
2019-05-03T02:56:13.418Z,81.30
2019-05-03T02:58:29.180Z,81.30
2019-05-03T03:01:02.730Z,81.50
2019-05-03T03:03:32.391Z,81.70
2019-05-03T03:06:02.665Z,81.80
2019-05-03T03:08:33.413Z,82.00
2019-05-03T03:11:06.442Z,82.10
2019-05-03T03:13:37.706Z,82.20
2019-05-03T03:16:08.739Z,82.00
2019-05-03T03:18:40.470Z,81.80
2019-05-03T03:21:15.681Z,81.80
2019-05-03T03:23:58.837Z,81.60
2019-05-03T03:26:37.438Z,81.20
2019-05-03T03:29:06.181Z,81.20
2019-05-03T03:31:58.038Z,81.40
2019-05-03T03:34:29.114Z,81.20
2019-05-03T03:37:04.670Z,80.90
2019-05-03T03:39:29.813Z,81.00
2019-05-03T03:42:05.135Z,81.10
2019-05-03T03:44:36.309Z,84.50
2019-05-03T03:47:05.544Z,81.00
2019-05-03T03:49:36.326Z,80.90
2019-05-03T03:52:06.277Z,81.00
2019-05-03T03:54:36.060Z,80.90
2019-05-03T03:57:08.179Z,80.50
2019-05-03T03:59:36.690Z,80.60
2019-05-03T04:02:06.542Z,80.40
2019-05-03T04:04:36.158Z,80.40
2019-05-03T04:07:07.629Z,80.20
2019-05-03T04:09:37.483Z,80.10
2019-05-03T04:12:07.465Z,80.20
2019-05-03T04:14:38.698Z,80.10
2019-05-03T04:17:26.088Z,80.20
2019-05-03T04:19:57.870Z,80.10
2019-05-03T04:22:27.667Z,80.10
2019-05-03T04:24:57.072Z,80.10
2019-05-03T04:27:27.684Z,81.00
2019-05-03T04:29:57.906Z,80.20
2019-05-03T04:32:29.008Z,80.00
2019-05-03T04:35:00.706Z,79.80
2019-05-03T04:37:30.945Z,80.20
2019-05-03T04:40:00.510Z,79.80
2019-05-03T04:42:30.234Z,80.20
2019-05-03T04:44:59.986Z,80.40
2019-05-03T04:47:29.995Z,80.40
2019-05-03T04:49:59.501Z,81.30
2019-05-03T04:52:29.562Z,80.80
2019-05-03T04:55:06.370Z,80.90
2019-05-03T04:57:42.186Z,81.40
2019-05-03T05:00:11.513Z,82.00
2019-05-03T05:02:41.170Z,82.40
2019-05-03T05:05:10.779Z,82.50
2019-05-03T05:07:41.097Z,82.60
2019-05-03T05:10:11.810Z,82.30
2019-05-03T05:12:41.913Z,82.40
2019-05-03T05:15:12.019Z,82.60
2019-05-03T05:17:49.931Z,82.40
2019-05-03T05:20:21.187Z,82.20
2019-05-03T05:22:50.675Z,81.90
2019-05-03T05:25:25.186Z,81.90
2019-05-03T05:28:02.195Z,81.40
2019-05-03T05:30:32.311Z,81.00
2019-05-03T05:33:01.904Z,80.70
2019-05-03T05:35:31.347Z,80.70
2019-05-03T05:38:00.902Z,80.00
2019-05-03T05:40:31.647Z,80.30
2019-05-03T05:43:01.179Z,80.30
2019-05-03T05:45:30.709Z,78.70
2019-05-03T05:48:01.935Z,77.30
2019-05-03T05:50:35.074Z,76.90
2019-05-03T05:53:05.140Z,75.50
2019-05-03T05:55:54.975Z,75.60
2019-05-03T05:58:38.944Z,75.10
2019-05-03T06:01:10.354Z,74.60
2019-05-03T06:03:39.881Z,73.40
2019-05-03T06:06:11.201Z,72.00
2019-05-03T06:08:45.263Z,71.30
2019-05-03T06:11:17.354Z,70.30
2019-05-03T06:13:54.790Z,69.90
2019-05-03T06:16:38.496Z,69.70
2019-05-03T06:19:12.475Z,68.00
2019-05-03T06:21:49.571Z,68.90
2019-05-03T06:24:22.075Z,67.60
2019-05-03T06:27:02.354Z,68.00
2019-05-03T06:29:32.030Z,67.90
2019-05-03T06:32:09.462Z,67.20
2019-05-03T06:34:39.299Z,67.00
2019-05-03T06:37:10.518Z,66.50
2019-05-03T06:39:40.406Z,66.50
2019-05-03T06:42:14.993Z,66.70
2019-05-03T06:44:41.166Z,66.10
2019-05-03T06:47:10.932Z,66.40
2019-05-03T06:49:44.793Z,65.40
2019-05-03T06:52:11.776Z,65.50
2019-05-03T06:54:41.501Z,64.90
2019-05-03T06:57:14.686Z,66.10
2019-05-03T06:59:48.425Z,65.20
2019-05-03T07:02:19.622Z,65.40
2019-05-03T07:04:51.157Z,65.30
2019-05-03T07:07:38.617Z,65.50
2019-05-03T07:10:14.894Z,65.50
2019-05-03T07:13:04.974Z,65.60
2019-05-03T07:15:35.242Z,66.00
2019-05-03T07:18:05.768Z,66.60
2019-05-03T07:20:46.040Z,67.30
2019-05-03T07:23:15.800Z,67.60
2019-05-03T07:25:46.359Z,67.50
2019-05-03T07:28:16.053Z,67.90
2019-05-03T07:30:45.770Z,68.50
2019-05-03T07:33:17.070Z,68.90
2019-05-03T07:35:46.626Z,69.10
2019-05-03T07:38:16.298Z,69.40
2019-05-03T07:40:45.989Z,69.10
2019-05-03T07:43:15.649Z,68.80
2019-05-03T07:45:45.481Z,68.50
2019-05-03T07:48:15.147Z,68.80
2019-05-03T07:50:44.834Z,68.50
2019-05-03T07:53:15.176Z,68.10
2019-05-03T07:56:05.181Z,69.00
2019-05-03T07:58:42.728Z,70.10
2019-05-03T08:01:14.958Z,70.00
2019-05-03T08:03:45.089Z,70.10
2019-05-03T08:06:15.078Z,69.60
2019-05-03T08:08:45.489Z,68.10
2019-05-03T08:11:14.985Z,67.30
2019-05-03T08:13:45.533Z,66.40
2019-05-03T08:16:16.086Z,65.60
2019-05-03T08:18:46.848Z,65.30
2019-05-03T08:21:16.451Z,65.10
2019-05-03T08:23:46.138Z,65.20
2019-05-03T08:26:15.698Z,63.40
2019-05-03T08:28:45.419Z,63.80
2019-05-03T08:31:32.949Z,65.60
2019-05-03T08:34:20.162Z,65.70
2019-05-03T08:36:54.838Z,63.90
2019-05-03T08:39:25.522Z,63.60
2019-05-03T08:41:59.254Z,62.50
2019-05-03T08:44:29.789Z,61.30
2019-05-03T08:46:59.354Z,62.00
2019-05-03T08:49:29.309Z,62.60
2019-05-03T08:51:58.834Z,62.30
2019-05-03T08:54:28.397Z,61.40
2019-05-03T08:56:58.147Z,61.20
2019-05-03T08:59:32.330Z,60.00
2019-05-03T09:02:03.503Z,58.10
2019-05-03T09:04:37.325Z,57.50
2019-05-03T09:07:01.478Z,54.80
2019-05-03T09:09:38.666Z,53.00
2019-05-03T09:12:08.209Z,50.50
2019-05-03T09:14:42.631Z,49.00
2019-05-03T09:17:09.206Z,49.20
2019-05-03T09:19:38.719Z,50.30
2019-05-03T09:22:08.312Z,50.60
2019-05-03T09:24:38.063Z,49.70
2019-05-03T09:27:07.555Z,50.30
2019-05-03T09:29:43.077Z,50.80
2019-05-03T09:32:08.678Z,49.80
2019-05-03T09:34:41.128Z,49.80
2019-05-03T09:37:15.524Z,51.30
2019-05-03T09:39:44.809Z,49.50
2019-05-03T09:42:15.396Z,46.20
2019-05-03T09:44:45.238Z,45.90
2019-05-03T09:47:14.800Z,46.30
2019-05-03T09:49:45.393Z,46.30
2019-05-03T09:52:16.253Z,46.00
2019-05-03T09:54:47.572Z,45.60
2019-05-03T09:57:17.502Z,46.20
2019-05-03T09:59:56.099Z,47.10
2019-05-03T10:02:18.062Z,46.20
2019-05-03T10:04:47.642Z,45.70
2019-05-03T10:07:17.480Z,43.70
2019-05-03T10:09:47.122Z,44.00
2019-05-03T10:12:18.400Z,43.40
2019-05-03T10:14:47.927Z,42.70
2019-05-03T10:17:35.135Z,41.30
2019-05-03T10:20:08.463Z,40.70
2019-05-03T10:22:37.938Z,41.50
2019-05-03T10:25:08.412Z,42.60
2019-05-03T10:27:46.860Z,42.30
2019-05-03T10:30:18.810Z,42.80
2019-05-03T10:32:52.666Z,43.50
2019-05-03T10:35:24.633Z,43.20
2019-05-03T10:37:54.906Z,44.00
2019-05-03T10:40:27.558Z,44.50
2019-05-03T10:42:57.532Z,42.90
2019-05-03T10:45:28.148Z,42.70
2019-05-03T10:47:57.838Z,45.90
2019-05-03T10:50:27.410Z,44.00
2019-05-03T10:52:58.576Z,41.80
2019-05-03T10:55:28.095Z,39.20
2019-05-03T10:58:08.319Z,39.80
2019-05-03T11:00:44.971Z,41.80
2019-05-03T11:03:14.064Z,41.40
2019-05-03T11:05:45.414Z,41.50
2019-05-03T11:08:14.949Z,45.70
2019-05-03T11:10:45.606Z,50.00
2019-05-03T11:13:15.531Z,51.60
2019-05-03T11:15:46.272Z,51.30
2019-05-03T11:18:15.923Z,51.50
2019-05-03T11:20:45.463Z,51.20
2019-05-03T11:23:15.173Z,50.50
2019-05-03T11:25:45.257Z,49.60
2019-05-03T11:28:16.780Z,49.10
2019-05-03T11:30:53.608Z,48.90
2019-05-03T11:33:20.563Z,49.40
2019-05-03T11:36:00.513Z,50.60
2019-05-03T11:38:31.795Z,51.50
2019-05-03T11:41:01.528Z,52.60
2019-05-03T11:43:31.206Z,52.90
2019-05-03T11:46:00.976Z,52.40
2019-05-03T11:48:30.445Z,51.60
2019-05-03T11:51:00.022Z,50.90
2019-05-03T11:53:29.646Z,51.60
2019-05-03T11:55:59.073Z,51.30
2019-05-03T11:58:29.190Z,51.20
2019-05-03T12:01:13.135Z,53.60
2019-05-03T12:03:41.442Z,50.90
2019-05-03T12:06:10.887Z,51.50
2019-05-03T12:08:40.339Z,51.00
2019-05-03T12:11:09.869Z,50.90
2019-05-03T12:13:39.410Z,50.70
2019-05-03T12:16:18.102Z,50.70
2019-05-03T12:18:52.204Z,51.00
2019-05-03T12:21:12.696Z,50.70
2019-05-03T12:23:45.519Z,50.20
2019-05-03T12:26:17.018Z,49.30
2019-05-03T12:28:46.427Z,48.80
2019-05-03T12:31:29.634Z,48.10
2019-05-03T12:33:47.726Z,48.70
2019-05-03T12:36:18.297Z,48.70
2019-05-03T12:38:47.776Z,47.90
2019-05-03T12:41:17.450Z,48.10
2019-05-03T12:43:47.308Z,48.70
2019-05-03T12:46:17.003Z,48.50
2019-05-03T12:48:47.759Z,47.60
2019-05-03T12:51:17.474Z,46.80
2019-05-03T12:53:47.207Z,46.50
2019-05-03T12:56:23.394Z,46.20
2019-05-03T12:58:49.567Z,45.10
2019-05-03T13:01:41.822Z,45.30
2019-05-03T13:04:15.381Z,45.40
2019-05-03T13:06:46.963Z,45.30
2019-05-03T13:09:16.559Z,45.20
2019-05-03T13:11:55.175Z,45.10
2019-05-03T13:14:19.358Z,43.70
2019-05-03T13:16:49.135Z,42.70
2019-05-03T13:19:18.764Z,42.30
2019-05-03T13:21:48.162Z,42.40
2019-05-03T13:24:23.379Z,42.00
2019-05-03T13:26:49.739Z,41.90
2019-05-03T13:29:19.358Z,41.80
2019-05-03T13:32:00.842Z,43.20
2019-05-03T13:34:20.330Z,44.50
2019-05-03T13:36:50.098Z,44.60
2019-05-03T13:39:19.801Z,45.30
2019-05-03T13:41:49.249Z,44.30
2019-05-03T13:44:18.707Z,42.60
2019-05-03T13:46:48.076Z,39.60
2019-05-03T13:49:17.703Z,40.20
2019-05-03T13:51:47.127Z,40.80
2019-05-03T13:54:16.604Z,38.30
2019-05-03T13:56:46.236Z,37.60
2019-05-03T13:59:19.801Z,38.30
2019-05-03T14:01:46.829Z,38.40
2019-05-03T14:04:16.388Z,40.40
2019-05-03T14:06:45.921Z,42.10
2019-05-03T14:09:15.422Z,43.10
2019-05-03T14:11:44.948Z,44.50
2019-05-03T14:14:15.186Z,43.50
2019-05-03T14:16:45.237Z,44.00
2019-05-03T14:19:16.486Z,42.80
2019-05-03T14:21:47.660Z,42.90
2019-05-03T14:24:17.230Z,42.40
2019-05-03T14:26:46.617Z,41.90
2019-05-03T14:29:16.008Z,40.00
2019-05-03T14:31:48.442Z,39.10
2019-05-03T14:34:17.904Z,37.50
2019-05-03T14:36:47.300Z,33.70
2019-05-03T14:39:16.787Z,32.30
2019-05-03T14:41:46.904Z,32.60
2019-05-03T14:44:18.090Z,32.20
2019-05-03T14:46:47.947Z,32.60
2019-05-03T14:49:17.662Z,31.90
2019-05-03T14:51:47.449Z,30.60
2019-05-03T14:54:17.352Z,32.00
2019-05-03T14:56:54.113Z,34.50
2019-05-03T14:59:26.397Z,35.00
2019-05-03T15:02:00.652Z,36.60
2019-05-03T15:04:30.005Z,37.80
2019-05-03T15:06:59.538Z,39.20
2019-05-03T15:09:29.248Z,39.30
2019-05-03T15:11:58.863Z,39.50
2019-05-03T15:14:28.215Z,40.30
2019-05-03T15:16:57.656Z,40.10
2019-05-03T15:19:27.289Z,38.90
2019-05-03T15:21:56.797Z,38.20
2019-05-03T15:24:26.318Z,36.10
2019-05-03T15:26:55.894Z,35.10
2019-05-03T15:29:25.281Z,36.40
2019-05-03T15:31:55.308Z,36.80
2019-05-03T15:34:25.467Z,37.40
2019-05-03T15:36:55.016Z,38.10
2019-05-03T15:39:24.399Z,38.60
2019-05-03T15:41:55.092Z,39.70
2019-05-03T15:44:26.095Z,41.50
2019-05-03T15:46:57.213Z,40.50
2019-05-03T15:49:27.716Z,41.10
2019-05-03T15:51:57.416Z,40.80
2019-05-03T15:54:26.822Z,40.90
2019-05-03T15:56:56.205Z,40.60
2019-05-03T15:59:25.675Z,41.50
2019-05-03T16:01:55.406Z,42.10
2019-05-03T16:04:25.353Z,42.40
2019-05-03T16:06:55.433Z,42.90
2019-05-03T16:09:27.206Z,43.30
2019-05-03T16:11:57.911Z,45.20
2019-05-03T16:14:27.319Z,42.90
2019-05-03T16:16:56.741Z,43.20
2019-05-03T16:19:26.288Z,45.10
2019-05-03T16:21:55.974Z,45.00
2019-05-03T16:24:25.577Z,43.60
2019-05-03T16:27:12.052Z,43.40
2019-05-03T16:29:44.549Z,43.10
2019-05-03T16:32:13.887Z,43.40
2019-05-03T16:34:44.562Z,43.70
2019-05-03T16:37:14.881Z,44.00
2019-05-03T16:39:45.341Z,44.00
2019-05-03T16:42:15.462Z,43.00
2019-05-03T16:44:45.192Z,44.10
2019-05-03T16:47:15.671Z,43.80
2019-05-03T16:49:45.268Z,43.20
2019-05-03T16:52:17.381Z,43.90
2019-05-03T16:54:47.166Z,43.90
2019-05-03T16:57:17.490Z,44.00
2019-05-03T16:59:47.424Z,43.80
2019-05-03T17:02:17.489Z,44.00
2019-05-03T17:04:48.638Z,43.50
2019-05-03T17:07:37.447Z,44.20
2019-05-03T17:10:15.385Z,44.40
2019-05-03T17:12:45.414Z,44.60
2019-05-03T17:15:15.097Z,45.00
2019-05-03T17:17:45.147Z,45.40
2019-05-03T17:20:16.544Z,45.60
2019-05-03T17:22:46.500Z,46.10
2019-05-03T17:25:15.921Z,46.70
2019-05-03T17:27:45.552Z,47.30
2019-05-03T17:30:15.211Z,47.40
2019-05-03T17:32:44.728Z,47.60
2019-05-03T17:35:14.482Z,47.70
2019-05-03T17:37:45.201Z,48.00
2019-05-03T17:40:23.576Z,48.20
2019-05-03T17:43:00.549Z,48.40
2019-05-03T17:45:38.092Z,48.70
2019-05-03T17:48:07.849Z,49.00
2019-05-03T17:50:37.466Z,49.10
2019-05-03T17:53:25.412Z,49.30
2019-05-03T17:55:56.609Z,49.00
2019-05-03T17:58:27.974Z,49.70
2019-05-03T18:01:15.624Z,49.90
2019-05-03T18:04:06.122Z,49.70
2019-05-03T18:06:28.408Z,49.80
2019-05-03T18:09:11.531Z,49.00
2019-05-03T18:11:49.012Z,49.30
2019-05-03T18:14:18.538Z,49.00
2019-05-03T18:16:48.166Z,48.00
2019-05-03T18:19:17.797Z,47.90
2019-05-03T18:21:47.433Z,48.30
2019-05-03T18:24:17.324Z,48.20
2019-05-03T18:26:46.989Z,48.70
2019-05-03T18:29:16.560Z,48.40
2019-05-03T18:31:45.936Z,48.70
2019-05-03T18:34:21.531Z,47.80
2019-05-03T18:36:50.252Z,48.20
2019-05-03T18:39:19.906Z,48.20
2019-05-03T18:41:50.018Z,48.30
2019-05-03T18:44:30.055Z,48.20
2019-05-03T18:47:05.439Z,48.30
2019-05-03T18:49:35.451Z,48.30
2019-05-03T18:52:06.144Z,48.40
2019-05-03T18:54:35.716Z,48.30
2019-05-03T18:57:05.297Z,48.40
2019-05-03T18:59:35.256Z,48.30
2019-05-03T19:02:05.460Z,48.40
2019-05-03T19:04:42.672Z,49.30
2019-05-03T19:07:14.947Z,48.60
2019-05-03T19:10:05.086Z,48.80
2019-05-03T19:12:36.295Z,49.00
2019-05-03T19:15:07.284Z,49.10
2019-05-03T19:17:47.884Z,49.20
2019-05-03T19:20:18.928Z,49.40
2019-05-03T19:22:48.535Z,49.60
2019-05-03T19:25:18.069Z,49.60
2019-05-03T19:27:47.652Z,49.50
2019-05-03T19:30:17.633Z,49.60
2019-05-03T19:32:47.257Z,49.80
2019-05-03T19:35:17.033Z,50.10
2019-05-03T19:37:46.779Z,50.30
2019-05-03T19:40:16.346Z,50.60
2019-05-03T19:42:46.388Z,51.10
2019-05-03T19:45:16.077Z,51.20
2019-05-03T19:47:46.181Z,51.40
2019-05-03T19:50:15.901Z,51.60
2019-05-03T19:53:05.006Z,51.90
2019-05-03T19:55:35.798Z,52.40
2019-05-03T19:58:05.543Z,52.80
2019-05-03T20:00:54.914Z,54.10
2019-05-03T20:03:32.260Z,53.70
2019-05-03T20:06:04.906Z,54.10
2019-05-03T20:08:36.303Z,54.30
2019-05-03T20:11:18.790Z,54.50
2019-05-03T20:13:48.361Z,54.80
2019-05-03T20:16:18.056Z,55.20
2019-05-03T20:18:48.214Z,55.60
2019-05-03T20:21:17.820Z,55.80
2019-05-03T20:23:47.401Z,56.20
2019-05-03T20:26:16.940Z,56.30
2019-05-03T20:28:46.723Z,56.20
2019-05-03T20:31:16.448Z,56.40
2019-05-03T20:33:45.909Z,56.30
2019-05-03T20:36:15.422Z,56.30
2019-05-03T20:38:45.400Z,56.20
2019-05-03T20:41:15.007Z,56.50
2019-05-03T20:43:49.088Z,56.40
2019-05-03T20:46:25.135Z,56.20
2019-05-03T20:48:56.097Z,56.30
2019-05-03T20:51:25.459Z,56.60
2019-05-03T20:53:55.513Z,57.40
2019-05-03T20:56:25.207Z,57.10
2019-05-03T20:58:55.047Z,57.10
2019-05-03T21:01:25.678Z,56.90
2019-05-03T21:03:55.188Z,56.40
2019-05-03T21:06:34.846Z,57.50
2019-05-03T21:08:56.573Z,57.70
2019-05-03T21:11:29.012Z,57.80
2019-05-03T21:13:58.466Z,58.20
2019-05-03T21:16:29.588Z,58.40
2019-05-03T21:19:17.197Z,58.50
2019-05-03T21:21:51.307Z,58.90
2019-05-03T21:24:24.186Z,59.30
2019-05-03T21:26:54.833Z,59.20
2019-05-03T21:29:24.931Z,59.50
2019-05-03T21:31:55.272Z,59.30
2019-05-03T21:34:26.679Z,59.40
2019-05-03T21:36:56.441Z,59.30
2019-05-03T21:39:27.278Z,59.40
2019-05-03T21:41:57.189Z,59.60
2019-05-03T21:44:30.510Z,59.80
2019-05-03T21:47:01.465Z,60.20
2019-05-03T21:49:41.304Z,59.90
2019-05-03T21:52:10.949Z,59.80
2019-05-03T21:54:40.333Z,60.00
2019-05-03T21:57:09.706Z,61.30
2019-05-03T21:59:39.263Z,60.60
2019-05-03T22:02:08.825Z,60.70
2019-05-03T22:04:38.430Z,60.60
2019-05-03T22:07:08.055Z,60.90
2019-05-03T22:09:37.574Z,60.60
2019-05-03T22:12:06.899Z,60.50
2019-05-03T22:14:39.049Z,60.30
2019-05-03T22:17:26.346Z,59.80
2019-05-03T22:19:57.451Z,60.10
2019-05-03T22:22:36.470Z,60.30
2019-05-03T22:25:08.032Z,59.90
2019-05-03T22:27:41.826Z,59.70
2019-05-03T22:30:11.387Z,60.00
2019-05-03T22:32:40.914Z,59.90
2019-05-03T22:35:10.404Z,59.90
2019-05-03T22:37:39.764Z,59.80
2019-05-03T22:40:09.424Z,60.00
2019-05-03T22:42:38.959Z,59.80
2019-05-03T22:45:08.462Z,59.70
2019-05-03T22:47:38.206Z,59.80
2019-05-03T22:50:07.621Z,60.10
2019-05-03T22:52:37.212Z,60.20
2019-05-03T22:55:07.348Z,60.70
2019-05-03T22:57:36.839Z,61.00
2019-05-03T23:00:09.187Z,61.40
2019-05-03T23:02:40.257Z,61.50
2019-05-03T23:05:09.725Z,61.80
2019-05-03T23:07:39.214Z,61.70
2019-05-03T23:10:09.061Z,62.60
2019-05-03T23:12:38.701Z,62.00
2019-05-03T23:15:08.942Z,62.30
2019-05-03T23:17:38.664Z,62.60
2019-05-03T23:20:09.675Z,62.90
2019-05-03T23:22:39.324Z,63.20
2019-05-03T23:25:08.830Z,63.20
2019-05-03T23:27:39.540Z,62.80
2019-05-03T23:30:09.016Z,63.10
2019-05-03T23:32:38.651Z,62.80
2019-05-03T23:35:08.143Z,62.70
2019-05-03T23:37:37.773Z,62.70
2019-05-03T23:40:07.801Z,62.50
2019-05-03T23:42:37.465Z,62.00
2019-05-03T23:45:06.879Z,61.90
2019-05-03T23:47:38.291Z,61.60
2019-05-03T23:50:09.550Z,61.60
2019-05-03T23:52:39.107Z,61.40
2019-05-03T23:55:10.219Z,61.40
2019-05-03T23:57:41.203Z,61.90
